This is the latest recevied weather packets stored in our database for station/object K5FEP. If no packets are shown the sender has not sent any weather packets the latest 10 day(s).
| Time | Temp. | Humidity | Pressure | Rain* | Wind** | Luminosity | Snow |
|---|---|---|---|---|---|---|---|
| 1787870016 | 27.78° C | 75% | 1012.6 hPa | 0 mm | - | 69 W/m² | - |
| 1787869715 | 27.78° C | 77% | 1013 hPa | 0 mm | - | 79 W/m² | - |
| 1787869414 | 27.78° C | 77% | 1012.9 hPa | 0 mm | - | 86 W/m² | - |
| 1787869109 | 27.78° C | 76% | 1012.9 hPa | 0 mm | - | 81 W/m² | - |
| 1787868808 | 27.78° C | 77% | 1013 hPa | 0 mm | - | 81 W/m² | - |
| 1787868507 | 27.78° C | 77% | 1012.9 hPa | 0 mm | - | 98 W/m² | - |
| 1787868206 | 27.78° C | 76% | 1012.7 hPa | 0 mm | - | 116 W/m² | - |
| 1787867908 | 27.22° C | 78% | 1012.5 hPa | 0 mm | - | 128 W/m² | - |
| 1787867597 | 27.78° C | 78% | 1012.8 hPa | 0 mm | - | 121 W/m² | - |
| 1787867296 | 27.22° C | 78% | 1012.9 hPa | 0 mm | - | 129 W/m² | - |
| 1787866993 | 27.78° C | 77% | 1012.9 hPa | 0 mm | - | 119 W/m² | - |
| 1787866687 | 27.78° C | 75% | 1012.8 hPa | 0 mm | - | 111 W/m² | - |
| 1787866386 | 27.78° C | 73% | 1013.1 hPa | 0 mm | - | 125 W/m² | - |
| 1787866081 | 27.78° C | 76% | 1013.5 hPa | 0 mm | - | 133 W/m² | - |
| 1787865776 | 27.78° C | 74% | 1013.5 hPa | 0 mm | - | 127 W/m² | - |
| 1787865471 | 27.78° C | 73% | 1013.3 hPa | 0 mm | - | 120 W/m² | - |
| 1787865166 | 27.78° C | 73% | 1013.4 hPa | 0 mm | - | 120 W/m² | - |
| 1787864863 | 27.78° C | 73% | 1013.3 hPa | 0 mm | - | 131 W/m² | - |
| 1787864562 | 27.78° C | 73% | 1013.5 hPa | 0 mm | - | 145 W/m² | - |
| 1787864257 | 27.78° C | 73% | 1013.5 hPa | 0 mm | - | 168 W/m² | - |
| 1787863952 | 27.78° C | 72% | 1013.5 hPa | 0 mm | - | 185 W/m² | - |
| 1787863650 | 28.33° C | 69% | 1013.5 hPa | 0 mm | - | 210 W/m² | - |
| 1787863349 | 28.89° C | 66% | 1013.1 hPa | 0 mm | - | 206 W/m² | - |
| 1787863046 | 29.44° C | 65% | 1013.3 hPa | 0 mm | - | 177 W/m² | - |
| 1787862748 | 30° C | 62% | 1013.4 hPa | 0 mm | - | 157 W/m² | - |
* Rain latest hour (hover to see other rain measurements)
** Current wind speed in m/s (hover to see current wind gust speed)